Time;durP1;ratioP1;P1;durP2;ratioP2;P2;SDS_P1;SDS_P2;PMS_P1;PMS_P2;Temp;Humidity;BMP_temperature;BMP_pressure;BME280_temperature;BME280_humidity;BME280_pressure;Samples;Min_cycle;Max_cycle;Signal;HPM_P1;HPM_P2
2022/05/18 00:00:09;;;;;;;1.67;0.85;;;;;;;12.18;71.99;101173.44;4986808;28;20129;-76
2022/05/18 00:02:36;;;;;;;3.17;1.05;;;;;;;12.18;71.44;101178.78;4985955;28;20038;-77
2022/05/18 00:05:01;;;;;;;;;;;;;;;12.16;71.61;101164.72;4986071;28;20029;-77
2022/05/18 00:07:27;;;;;;;;;;;;;;;12.25;71.71;101190.53;4986309;28;19913;-77
2022/05/18 00:09:52;;;;;;;2.20;0.90;;;;;;;12.12;72.28;101184.78;4985807;28;20326;-76
2022/05/18 00:12:17;;;;;;;2.97;1.20;;;;;;;12.23;72.71;101229.16;4985914;28;20034;-77
2022/05/18 00:14:44;;;;;;;5.93;1.10;;;;;;;12.28;71.44;101204.59;4985513;28;20265;-77
2022/05/18 00:17:09;;;;;;;1.48;0.90;;;;;;;12.10;70.75;101149.31;4985507;28;20399;-77
2022/05/18 00:19:35;;;;;;;11.13;2.97;;;;;;;12.06;71.71;101180.09;4986613;28;20029;-77
2022/05/18 00:22:01;;;;;;;3.58;1.02;;;;;;;12.10;72.78;101213.53;4987385;28;20077;-77
2022/05/18 00:24:27;;;;;;;3.45;1.00;;;;;;;12.07;72.86;101219.22;5006853;28;20040;-77
2022/05/18 00:26:53;;;;;;;3.53;0.90;;;;;;;12.07;72.55;101197.81;4969298;28;20128;-76
2022/05/18 00:29:18;;;;;;;2.28;0.93;;;;;;;12.17;73.39;101241.34;4987110;28;20069;-77
2022/05/18 00:31:46;;;;;;;4.27;0.80;;;;;;;12.04;74.60;101240.97;4986726;28;20034;-77
2022/05/18 00:34:12;;;;;;;2.53;1.10;;;;;;;12.13;73.66;101228.47;4969911;28;20033;-77
2022/05/18 00:36:38;;;;;;;2.45;0.90;;;;;;;12.14;74.40;101249.69;4986938;28;20125;-77
2022/05/18 00:39:03;;;;;;;2.53;1.00;;;;;;;12.19;73.72;101241.19;4984937;28;20117;-77
2022/05/18 00:41:29;;;;;;;4.17;1.13;;;;;;;12.04;74.52;101224.91;4984583;28;20073;-76
2022/05/18 00:43:55;;;;;;;3.17;1.20;;;;;;;12.06;74.13;101233.63;4986066;28;20061;-76
2022/05/18 00:46:21;;;;;;;2.38;0.80;;;;;;;12.03;74.21;101237.44;4998329;28;20765;-77
2022/05/18 00:48:47;;;;;;;3.83;1.17;;;;;;;12.01;74.38;101225.19;4994434;28;20034;-76
2022/05/18 00:51:22;;;;;;;6.57;0.93;;;;;;;12.00;76.06;101277.06;4986063;28;20439;-76
2022/05/18 00:53:56;;;;;;;4.40;1.05;;;;;;;11.98;76.32;101269.19;4984843;28;20121;-76
2022/05/18 00:56:52;;;;;;;3.75;0.90;;;;;;;12.01;75.49;101251.97;4981780;28;20047;-76
2022/05/18 00:59:23;;;;;;;5.55;1.23;;;;;;;11.96;74.76;101230.19;4980177;28;20553;-76
2022/05/18 01:01:50;;;;;;;4.10;0.90;;;;;;;11.91;73.76;101195.91;4969461;28;20034;-77
2022/05/18 01:04:16;;;;;;;3.65;0.90;;;;;;;11.91;72.59;101170.97;4985955;28;20480;-77
2022/05/18 01:06:58;;;;;;;5.70;0.60;;;;;;;11.86;72.14;101150.03;4984768;28;20030;-75
2022/05/18 01:09:37;;;;;;;4.90;1.10;;;;;;;11.93;72.66;101179.69;4972091;28;20317;-77
2022/05/18 01:12:07;;;;;;;1.27;0.73;;;;;;;12.06;70.65;101157.81;4985198;28;20031;-76
2022/05/18 01:14:43;;;;;;;2.78;1.00;;;;;;;11.85;70.42;101116.25;4987048;28;20042;-76
2022/05/18 01:17:11;;;;;;;2.58;0.82;;;;;;;11.84;70.65;101123.44;4997034;28;20039;-76
2022/05/18 01:19:38;;;;;;;2.30;0.90;;;;;;;11.80;69.69;101090.00;4990298;28;20593;-76
2022/05/18 01:22:35;;;;;;;2.00;0.77;;;;;;;11.90;68.84;101095.25;4989601;28;20628;-76
2022/05/18 01:25:22;;;;;;;2.97;0.90;;;;;;;11.77;68.10;101058.19;4983425;28;20118;-76
2022/05/18 01:27:48;;;;;;;2.03;0.70;;;;;;;11.72;68.06;101055.19;4979909;28;20030;-75
2022/05/18 01:30:14;;;;;;;5.60;0.90;;;;;;;11.70;67.80;101062.53;4989634;28;20060;-76
2022/05/18 01:32:45;;;;;;;4.97;0.88;;;;;;;11.60;68.42;101051.97;4987823;28;20101;-77
2022/05/18 01:35:15;;;;;;;2.42;1.00;;;;;;;11.61;69.05;101079.53;4987999;28;20408;-77
2022/05/18 01:37:40;;;;;;;0.93;0.70;;;;;;;11.60;69.99;101105.44;4988242;28;20108;-77
2022/05/18 01:40:25;;;;;;;3.60;0.90;;;;;;;11.63;69.44;101104.28;4992835;28;20648;-76
2022/05/18 01:43:05;;;;;;;1.15;0.80;;;;;;;11.57;69.59;101105.78;4988745;28;20603;-76
2022/05/18 01:46:22;;;;;;;1.52;0.80;;;;;;;11.57;69.88;101108.44;4989199;28;20050;-76
2022/05/18 01:48:51;;;;;;;3.40;0.75;;;;;;;11.55;70.82;101129.16;4969334;28;20034;-76
2022/05/18 01:51:31;;;;;;;1.73;0.60;;;;;;;11.50;70.46;101103.91;4988427;28;20022;-76
2022/05/18 01:53:56;;;;;;;3.40;0.85;;;;;;;11.46;70.53;101099.88;4987429;28;20029;-76
2022/05/18 01:56:22;;;;;;;2.23;0.77;;;;;;;11.45;71.46;101127.59;4971225;28;20034;-75
2022/05/18 01:58:47;;;;;;;2.57;0.70;;;;;;;11.38;71.44;101128.25;4988855;28;20442;-75
2022/05/18 02:01:13;;;;;;;1.70;0.63;;;;;;;11.35;71.71;101127.72;4986806;28;20754;-76
2022/05/18 02:03:38;;;;;;;2.50;0.90;;;;;;;11.33;72.44;101151.09;4971399;28;20454;-75
2022/05/18 02:06:03;;;;;;;6.23;1.93;;;;;;;11.30;72.66;101146.91;4995829;28;20026;-77
2022/05/18 02:08:29;;;;;;;3.70;0.60;;;;;;;11.28;72.42;101143.53;4987213;28;20092;-76
2022/05/18 02:10:54;;;;;;;2.70;0.90;;;;;;;11.14;72.78;101133.41;4970797;28;20065;-76
2022/05/18 02:13:20;;;;;;;3.50;1.33;;;;;;;11.17;73.35;101151.84;4970765;28;20041;-76
2022/05/18 02:15:46;;;;;;;1.75;0.85;;;;;;;11.23;73.94;101172.56;5002105;28;20025;-76
2022/05/18 02:18:12;;;;;;;2.10;0.88;;;;;;;11.28;73.47;101169.44;4993110;28;20914;-76
2022/05/18 02:20:38;;;;;;;3.83;0.93;;;;;;;11.23;73.86;101161.88;4986247;28;20026;-75
2022/05/18 02:23:04;;;;;;;1.27;0.73;;;;;;;11.22;74.48;101175.44;4986509;28;20029;-77
2022/05/18 02:25:32;;;;;;;2.50;0.77;;;;;;;11.19;74.57;101177.41;4988175;28;20038;-76
2022/05/18 02:27:57;;;;;;;7.43;0.95;;;;;;;11.19;75.43;101187.25;4987703;28;20034;-75
2022/05/18 02:30:22;;;;;;;2.30;0.80;;;;;;;11.12;74.92;101159.47;4970421;28;20022;-76
2022/05/18 02:32:48;;;;;;;2.60;0.93;;;;;;;11.04;75.41;101162.09;4987016;28;20034;-76
2022/05/18 02:35:14;;;;;;;4.43;0.65;;;;;;;11.03;75.95;101181.75;4986884;28;20044;-76
2022/05/18 02:37:39;;;;;;;2.78;0.80;;;;;;;10.99;76.17;101182.09;4987908;28;20030;-77
2022/05/18 02:40:07;;;;;;;4.53;1.00;;;;;;;10.98;76.74;101190.28;4994807;28;20026;-76
2022/05/18 02:42:32;;;;;;;6.13;0.90;;;;;;;10.93;77.23;101189.88;4986395;28;20038;-76
2022/05/18 02:44:58;;;;;;;1.10;0.90;;;;;;;10.90;77.77;101208.88;4971098;28;20029;-76
2022/05/18 02:47:23;;;;;;;1.40;1.03;;;;;;;10.89;78.61;101234.78;4988296;28;20493;-76
2022/05/18 02:49:49;;;;;;;4.10;2.13;;;;;;;10.88;78.68;101232.25;4988507;28;20396;-77
2022/05/18 02:52:14;;;;;;;3.13;1.00;;;;;;;10.79;78.79;101225.97;4988279;28;20022;-75
2022/05/18 02:57:24;;;;;;;2.63;0.80;;;;;;;10.85;79.33;101254.75;4988360;28;20120;-76
2022/05/18 02:59:49;;;;;;;1.93;0.63;;;;;;;10.82;80.18;101265.75;4986398;28;20022;-77
2022/05/18 03:02:15;;;;;;;2.47;1.15;;;;;;;10.81;80.99;101281.91;4986050;28;20023;-76
2022/05/18 03:04:41;;;;;;;5.25;0.88;;;;;;;10.83;81.23;101294.13;4986470;28;20045;-77
2022/05/18 03:07:06;;;;;;;4.32;1.23;;;;;;;10.78;80.50;101264.38;4987255;28;20030;-77
2022/05/18 03:09:32;;;;;;;4.80;0.97;;;;;;;10.73;80.54;101266.66;4987738;28;20088;-76
2022/05/18 03:11:57;;;;;;;7.70;1.57;;;;;;;10.82;80.50;101284.44;4986537;28;20404;-76
2022/05/18 03:14:23;;;;;;;4.67;1.20;;;;;;;10.82;80.60;101288.97;4985917;28;20036;-76
2022/05/18 03:16:49;;;;;;;3.15;0.93;;;;;;;10.80;80.05;101282.94;4985944;28;20034;-76
2022/05/18 03:19:15;;;;;;;3.25;1.25;;;;;;;10.82;78.96;101268.44;4969529;28;20022;-76
2022/05/18 03:24:24;;;;;;;2.35;1.23;;;;;;;10.83;78.95;101274.59;4987213;28;20034;-77
2022/05/18 03:26:50;;;;;;;2.03;0.90;;;;;;;10.88;79.71;101299.84;4985548;28;20431;-77
2022/05/18 03:29:17;;;;;;;3.63;1.00;;;;;;;10.86;79.42;101299.16;4985830;28;20078;-76
2022/05/18 03:31:43;;;;;;;1.13;0.65;;;;;;;10.81;79.95;101295.28;4985676;28;20491;-76
2022/05/18 03:34:08;;;;;;;7.38;1.40;;;;;;;10.77;79.99;101295.59;4990326;28;20053;-76
2022/05/18 03:36:34;;;;;;;3.13;1.40;;;;;;;10.82;80.76;101321.00;4992338;28;20041;-76
2022/05/18 03:39:01;;;;;;;7.15;1.20;;;;;;;10.87;80.94;101327.56;4986537;28;20038;-77
2022/05/18 03:41:26;;;;;;;;;;;;;;;10.93;82.23;101375.06;4985572;28;20030;-77
2022/05/18 03:43:51;;;;;;;;;;;;;;;10.93;81.63;101360.84;4986939;28;19917;-76
2022/05/18 03:46:17;;;;;;;7.83;0.93;;;;;;;10.86;81.37;101346.41;4985690;28;19922;-75
2022/05/18 03:48:43;;;;;;;3.07;1.90;;;;;;;10.85;81.90;101353.59;4986922;28;20121;-76
2022/05/18 03:51:13;;;;;;;4.80;1.33;;;;;;;10.78;81.38;101334.66;4986769;28;20030;-76
2022/05/18 03:53:39;;;;;;;3.92;1.05;;;;;;;10.85;81.96;101356.25;4985434;28;20030;-76
2022/05/18 03:56:05;;;;;;;3.33;1.13;;;;;;;10.83;80.87;101331.53;4986927;28;20081;-76
2022/05/18 03:58:30;;;;;;;7.15;1.85;;;;;;;10.85;82.33;101358.94;4986632;28;20049;-76
2022/05/18 04:01:00;;;;;;;6.17;1.17;;;;;;;10.83;82.66;101363.59;4985050;28;20573;-76
2022/05/18 04:03:27;;;;;;;4.55;1.15;;;;;;;10.77;83.00;101361.53;4982550;28;20041;-77
2022/05/18 04:05:53;;;;;;;6.43;1.52;;;;;;;10.81;83.84;101392.25;4984800;28;20030;-76
2022/05/18 04:08:19;;;;;;;6.32;1.02;;;;;;;10.86;84.53;101422.03;4997041;28;20096;-77
2022/05/18 04:10:45;;;;;;;3.30;1.60;;;;;;;10.87;83.62;101399.69;5000475;28;20029;-76
2022/05/18 04:13:12;;;;;;;5.03;1.10;;;;;;;10.82;82.64;101383.28;5000589;28;20070;-77
2022/05/18 04:15:38;;;;;;;2.05;1.08;;;;;;;10.78;82.89;101381.88;4983537;28;20116;-76
2022/05/18 04:18:04;;;;;;;5.73;1.33;;;;;;;10.77;82.84;101373.03;4998487;28;20118;-76
2022/05/18 04:20:29;;;;;;;2.42;1.00;;;;;;;10.84;83.09;101397.34;4991145;28;20025;-76
2022/05/18 04:22:55;;;;;;;2.33;1.05;;;;;;;10.78;83.61;101389.91;4998721;28;20529;-76
2022/05/18 04:25:25;;;;;;;3.60;1.80;;;;;;;10.78;84.29;101400.59;4995811;28;20039;-76
2022/05/18 04:27:51;;;;;;;4.32;1.30;;;;;;;10.68;85.20;101395.28;4998513;28;20065;-76
2022/05/18 04:30:18;;;;;;;4.75;1.10;;;;;;;10.77;86.24;101423.78;5001769;28;20033;-77
2022/05/18 04:32:44;;;;;;;4.65;1.92;;;;;;;10.86;86.74;101446.09;4999317;28;20053;-76
2022/05/18 04:35:13;;;;;;;1.17;1.05;;;;;;;10.90;85.75;101442.13;5002237;28;20100;-76
2022/05/18 04:37:39;;;;;;;10.32;1.75;;;;;;;10.82;85.72;101423.34;4985529;28;20030;-77
2022/05/18 04:40:06;;;;;;;1.88;1.00;;;;;;;10.86;85.62;101438.06;4999885;28;20383;-76
2022/05/18 04:42:32;;;;;;;5.70;1.08;;;;;;;10.76;85.33;101414.06;4994629;28;20493;-76
2022/05/18 04:44:57;;;;;;;3.53;1.17;;;;;;;10.76;86.70;101439.94;5002646;28;20041;-76
2022/05/18 04:47:24;;;;;;;3.50;1.67;;;;;;;10.97;87.61;101494.00;5004014;28;20044;-76
2022/05/18 04:49:51;;;;;;;2.72;1.10;;;;;;;10.98;85.40;101447.59;4986267;28;20134;-76
2022/05/18 04:52:20;;;;;;;4.60;1.20;;;;;;;11.08;85.68;101452.06;5004002;28;20208;-76
2022/05/18 04:54:47;;;;;;;1.75;0.90;;;;;;;11.15;85.37;101463.81;5003968;28;20029;-76
2022/05/18 04:57:13;;;;;;;6.65;1.27;;;;;;;11.30;84.08;101456.13;4988051;28;20042;-76
2022/05/18 04:59:38;;;;;;;9.20;2.03;;;;;;;11.30;83.76;101446.28;5001059;28;20032;-76
2022/05/18 05:02:04;;;;;;;2.73;1.10;;;;;;;11.51;82.28;101443.31;4992354;28;20042;-76
2022/05/18 05:04:30;;;;;;;5.07;1.23;;;;;;;11.62;81.84;101445.78;4995586;28;20030;-76
2022/05/18 05:06:58;;;;;;;3.97;1.13;;;;;;;11.73;81.07;101435.84;4973112;28;20606;-76
2022/05/18 05:09:24;;;;;;;3.05;1.10;;;;;;;12.00;81.36;101477.78;4971715;28;20110;-76
2022/05/18 05:11:52;;;;;;;4.28;1.60;;;;;;;11.62;80.97;101415.53;4988124;28;20502;-76
2022/05/18 05:14:18;;;;;;;3.92;1.38;;;;;;;11.64;81.83;101436.78;4990210;28;20061;-75
2022/05/18 05:16:43;;;;;;;3.20;1.27;;;;;;;11.59;82.44;101454.13;4988165;28;20827;-76
2022/05/18 05:19:09;;;;;;;2.50;1.10;;;;;;;11.38;83.30;101440.19;4989640;28;20022;-76
2022/05/18 05:21:35;;;;;;;2.88;1.05;;;;;;;11.30;85.35;101473.00;4987899;28;20092;-76
2022/05/18 05:24:04;;;;;;;2.60;1.20;;;;;;;11.54;84.28;101487.63;4976269;28;20065;-76
2022/05/18 05:26:29;;;;;;;4.30;1.20;;;;;;;11.82;83.29;101510.69;4964104;28;20042;-76
2022/05/18 05:28:55;;;;;;;2.93;1.47;;;;;;;11.97;82.17;101512.88;5002318;28;20037;-76
2022/05/18 05:31:20;;;;;;;3.63;1.50;;;;;;;12.60;79.16;101517.25;4986018;28;20073;-76
2022/05/18 05:33:45;;;;;;;6.77;1.10;;;;;;;12.64;76.58;101471.22;5000991;28;20121;-76
2022/05/18 05:36:11;;;;;;;5.53;1.17;;;;;;;14.05;72.61;101529.75;5020346;28;20060;-76
2022/05/18 05:38:37;;;;;;;3.35;1.30;;;;;;;14.88;67.16;101467.72;4994572;28;20118;-76
2022/05/18 05:41:02;;;;;;;5.05;1.90;;;;;;;14.55;63.54;101276.19;4995493;28;20035;-77
2022/05/18 05:43:31;;;;;;;5.03;1.43;;;;;;;14.88;63.69;101345.91;4990856;28;20105;-77
2022/05/18 05:46:00;;;;;;;3.38;1.40;;;;;;;15.54;61.65;101379.41;5001489;28;20034;-77
2022/05/18 05:48:27;;;;;;;2.03;1.10;;;;;;;15.03;61.62;101281.44;4986217;28;20042;-77
2022/05/18 05:50:52;;;;;;;6.35;1.55;;;;;;;14.75;63.25;101335.72;5000951;28;20048;-77
2022/05/18 05:53:18;;;;;;;4.65;1.48;;;;;;;14.58;64.45;101361.81;5003725;28;20022;-77
2022/05/18 05:55:43;;;;;;;6.10;1.58;;;;;;;15.37;61.32;101329.44;5002716;28;20041;-77
2022/05/18 05:58:09;;;;;;;3.67;1.80;;;;;;;14.62;62.60;101271.78;5004046;28;20017;-77
2022/05/18 06:00:34;;;;;;;5.47;1.37;;;;;;;14.74;64.48;101382.41;5005451;28;20609;-77
2022/05/18 06:02:59;;;;;;;4.47;1.67;;;;;;;14.80;62.51;101295.72;5004217;28;20038;-77
2022/05/18 06:05:25;;;;;;;5.87;1.47;;;;;;;15.05;63.56;101403.94;5004316;28;20448;-77
2022/05/18 06:07:50;;;;;;;4.88;1.67;;;;;;;15.37;61.54;101335.66;5018959;28;20030;-77
2022/05/18 06:10:16;;;;;;;7.20;1.67;;;;;;;15.20;62.36;101345.69;5004867;28;20542;-77
2022/05/18 06:12:41;;;;;;;6.03;1.40;;;;;;;15.42;62.66;101399.69;4995998;28;20293;-78
2022/05/18 06:15:08;;;;;;;5.17;1.67;;;;;;;15.60;62.23;101380.56;4997509;28;20041;-76
2022/05/18 06:17:34;;;;;;;1.85;1.42;;;;;;;15.14;62.48;101316.00;4988738;28;20100;-77
2022/05/18 06:19:59;;;;;;;4.28;2.17;;;;;;;15.29;63.79;101404.81;4987584;28;20487;-78
2022/05/18 06:22:26;;;;;;;3.20;1.53;;;;;;;15.32;63.25;101396.41;4995166;28;20387;-77
2022/05/18 06:24:52;;;;;;;4.50;2.22;;;;;;;15.38;64.56;101452.19;4972390;28;20057;-77
2022/05/18 06:27:19;;;;;;;8.02;1.70;;;;;;;15.24;63.52;101391.06;4972194;28;20022;-77
2022/05/18 06:29:44;;;;;;;5.88;2.10;;;;;;;14.68;65.90;101399.22;5000823;28;20048;-77
2022/05/18 06:32:10;;;;;;;3.27;1.90;;;;;;;15.17;65.68;101453.66;4987075;28;20017;-77
2022/05/18 06:34:35;;;;;;;4.37;1.93;;;;;;;15.44;66.53;101539.44;5018885;28;20049;-76
2022/05/18 06:37:03;;;;;;;7.13;2.40;;;;;;;14.97;66.58;101442.47;5001458;28;20081;-77
2022/05/18 06:39:29;;;;;;;3.20;2.05;;;;;;;16.05;64.41;101537.78;5013708;28;20557;-77
2022/05/18 06:41:57;;;;;;;5.18;1.70;;;;;;;15.68;64.04;101460.41;5001534;28;20269;-78
2022/05/18 06:44:24;;;;;;;11.00;2.35;;;;;;;15.38;65.56;101447.66;5005116;28;20034;-77
2022/05/18 06:46:49;;;;;;;;;;;;;;;15.55;67.44;101547.97;5002660;28;20089;-77
2022/05/18 06:49:16;;;;;;;6.05;2.90;;;;;;;16.58;65.35;101616.03;5006346;28;19914;-78
2022/05/18 06:51:43;;;;;;;4.30;2.53;;;;;;;15.83;63.83;101437.13;5019527;28;20036;-77
2022/05/18 06:54:10;;;;;;;3.75;2.10;;;;;;;16.24;65.41;101571.47;4971816;28;20046;-77
2022/05/18 06:56:39;;;;;;;3.92;2.00;;;;;;;16.72;64.29;101585.56;4985756;28;20368;-77
2022/05/18 06:59:05;;;;;;;5.30;2.67;;;;;;;16.59;62.84;101501.78;5005012;28;20495;-78
2022/05/18 07:01:31;;;;;;;6.97;2.45;;;;;;;16.04;66.11;101542.31;5019875;28;20435;-77
2022/05/18 07:03:57;;;;;;;6.28;2.00;;;;;;;16.49;65.87;101600.94;5002544;28;20027;-76
2022/05/18 07:06:24;;;;;;;3.35;2.13;;;;;;;16.49;66.27;101598.25;5000631;28;20069;-78
2022/05/18 07:08:51;;;;;;;8.43;2.67;;;;;;;16.43;65.71;101562.06;5004130;28;20064;-78
2022/05/18 07:11:20;;;;;;;5.20;2.03;;;;;;;16.91;65.86;101622.00;5006439;28;20052;-76
2022/05/18 07:13:51;;;;;;;2.58;2.00;;;;;;;17.37;63.61;101588.63;5003098;28;20060;-77
2022/05/18 07:16:18;;;;;;;6.82;2.47;;;;;;;16.80;66.02;101576.59;5006357;28;20049;-77
2022/05/18 07:18:44;;;;;;;6.65;2.63;;;;;;;17.43;65.03;101628.38;5002883;28;20033;-77
2022/05/18 07:21:10;;;;;;;6.35;2.63;;;;;;;16.51;66.60;101531.53;5004075;28;20056;-78
2022/05/18 07:23:36;;;;;;;3.83;2.28;;;;;;;15.96;71.31;101592.69;5004710;28;20487;-77
2022/05/18 07:26:01;;;;;;;7.73;2.17;;;;;;;16.24;72.73;101671.16;5002871;28;20533;-78
2022/05/18 07:28:27;;;;;;;3.83;2.17;;;;;;;16.35;73.02;101678.84;4987441;28;20025;-77
2022/05/18 07:30:54;;;;;;;15.43;3.65;;;;;;;16.55;73.16;101700.81;5001498;28;20045;-77
2022/05/18 07:33:21;;;;;;;7.65;2.58;;;;;;;17.00;71.61;101703.69;5005537;28;20025;-77
2022/05/18 07:35:49;;;;;;;7.45;2.58;;;;;;;17.56;72.15;101795.97;4985415;28;20034;-77
2022/05/18 07:38:14;;;;;;;4.97;2.72;;;;;;;18.43;69.47;101792.66;5004901;28;20588;-78
2022/05/18 07:40:40;;;;;;;6.07;3.42;;;;;;;17.45;68.18;101592.06;5003288;28;20029;-77
2022/05/18 07:43:06;;;;;;;4.75;2.75;;;;;;;17.81;71.57;101747.13;4986514;28;20410;-78
2022/05/18 07:45:33;;;;;;;3.85;2.33;;;;;;;17.08;74.96;101725.19;5003273;28;20088;-77
2022/05/18 07:47:58;;;;;;;6.18;2.50;;;;;;;17.04;76.91;101775.13;5002452;28;20077;-77
2022/05/18 07:50:24;;;;;;;6.43;2.67;;;;;;;16.55;81.01;101775.41;5004233;28;20042;-77
2022/05/18 07:52:52;;;;;;;7.05;3.53;;;;;;;17.06;79.35;101794.69;5002987;28;20060;-77
2022/05/18 07:55:18;;;;;;;7.90;3.30;;;;;;;17.22;80.50;101809.91;5002409;28;20042;-77
2022/05/18 07:57:44;;;;;;;4.53;3.08;;;;;;;17.95;78.19;101838.13;5000906;28;20080;-77
2022/05/18 08:00:11;;;;;;;10.60;3.00;;;;;;;18.56;73.08;101759.50;5003434;28;20034;-77
2022/05/18 08:02:37;;;;;;;6.75;3.22;;;;;;;18.54;72.49;101739.94;5018263;28;20048;-76
2022/05/18 08:05:04;;;;;;;5.25;3.35;;;;;;;18.49;72.00;101705.34;5003362;28;20499;-77
2022/05/18 08:07:29;;;;;;;5.18;3.03;;;;;;;18.34;74.27;101751.38;5002165;28;20398;-78
2022/05/18 08:15:23;;;;;;;5.60;3.70;;;;;;;19.03;74.69;101809.56;4981141;28;20073;-78
2022/05/18 08:17:49;;;;;;;4.45;2.92;;;;;;;19.63;70.99;101785.75;4973018;28;20036;-78
2022/05/18 08:20:20;;;;;;;7.95;3.85;;;;;;;19.62;71.46;101789.50;5006385;28;20402;-77
2022/05/18 08:22:46;;;;;;;5.03;3.47;;;;;;;19.09;71.12;101699.72;4988167;28;20029;-77
2022/05/18 08:25:13;;;;;;;8.15;3.58;;;;;;;18.90;74.73;101760.75;5006981;28;20022;-76
2022/05/18 08:27:48;;;;;;;5.90;3.40;;;;;;;19.79;71.87;101790.88;5006111;28;20038;-77
2022/05/18 08:30:18;;;;;;;4.95;3.60;;;;;;;19.79;72.59;101814.44;4995154;28;20066;-77
2022/05/18 08:32:44;;;;;;;7.72;3.40;;;;;;;19.12;75.33;101770.53;5002902;28;20088;-77
2022/05/18 08:35:11;;;;;;;5.45;3.95;;;;;;;20.18;72.55;101821.13;5006208;28;20109;-77
2022/05/18 08:37:41;;;;;;;8.60;5.03;;;;;;;20.16;69.84;101722.94;5004439;28;20374;-76
2022/05/18 08:40:28;;;;;;;6.72;4.05;;;;;;;20.39;70.92;101782.22;4987294;28;20104;-77
2022/05/18 08:43:00;;;;;;;11.75;3.75;;;;;;;20.60;70.87;101779.44;5004370;28;20026;-77
2022/05/18 08:45:31;;;;;;;9.25;4.10;;;;;;;19.99;73.10;101755.78;4988455;28;20037;-77
2022/05/18 08:48:19;;;;;;;7.88;4.18;;;;;;;20.35;74.84;101848.78;4986507;28;20458;-77
2022/05/18 08:50:44;;;;;;;7.30;3.90;;;;;;;20.71;71.78;101796.16;5004483;28;20038;-77
2022/05/18 08:53:25;;;;;;;6.38;4.43;;;;;;;20.48;71.49;101753.88;5004875;28;20029;-78
2022/05/18 08:56:08;;;;;;;6.28;3.75;;;;;;;21.18;71.99;101840.53;5002700;28;20045;-77
2022/05/18 08:58:50;;;;;;;9.52;4.30;;;;;;;20.85;70.45;101743.59;5004194;28;20100;-77
2022/05/18 09:01:27;;;;;;;9.50;4.57;;;;;;;20.78;70.09;101732.72;4987519;28;20045;-77
2022/05/18 09:03:57;;;;;;;9.18;4.00;;;;;;;21.15;71.42;101798.34;5002230;28;20502;-77
2022/05/18 09:06:44;;;;;;;9.93;3.58;;;;;;;21.75;68.37;101784.78;4987782;28;20041;-77
2022/05/18 09:12:02;;;;;;;6.30;4.50;;;;;;;21.75;67.83;101760.31;5004015;28;20056;-77
2022/05/18 09:14:34;;;;;;;7.15;4.05;;;;;;;20.96;68.71;101677.84;4997839;28;20101;-77
2022/05/18 09:17:17;;;;;;;8.73;4.22;;;;;;;21.90;69.11;101828.03;5002595;28;20070;-78
2022/05/18 09:20:00;;;;;;;10.68;4.00;;;;;;;21.40;69.17;101755.13;5002484;28;20036;-77
2022/05/18 09:22:54;;;;;;;8.60;4.57;;;;;;;21.85;67.40;101760.72;5001711;28;20042;-78
2022/05/18 09:25:30;;;;;;;10.25;5.18;;;;;;;22.52;64.45;101716.94;4921593;28;20412;-77
2022/05/18 09:28:10;;;;;;;8.05;4.75;;;;;;;22.02;66.10;101708.59;5003725;28;20381;-78
2022/05/18 09:30:48;;;;;;;7.63;4.32;;;;;;;22.03;65.90;101702.94;5005824;28;20037;-78
2022/05/18 09:33:22;;;;;;;9.23;5.00;;;;;;;22.45;65.24;101741.47;5001926;28;20406;-78
2022/05/18 09:36:03;;;;;;;9.73;5.15;;;;;;;22.08;66.20;101721.31;4988237;28;20033;-78
2022/05/18 09:38:41;;;;;;;7.97;4.22;;;;;;;22.81;62.85;101710.06;5006313;28;20034;-77
2022/05/18 09:41:12;;;;;;;11.43;5.57;;;;;;;22.13;64.89;101664.41;4974968;28;20112;-77
2022/05/18 09:43:48;;;;;;;11.38;5.00;;;;;;;21.08;67.16;101569.44;5007077;28;20112;-77
2022/05/18 09:46:20;;;;;;;6.78;5.18;;;;;;;21.07;71.05;101704.34;4999172;28;20038;-77
2022/05/18 09:49:04;;;;;;;6.18;4.97;;;;;;;21.18;71.19;101712.91;5020033;28;20100;-77
2022/05/18 09:51:29;;;;;;;9.82;4.85;;;;;;;21.43;71.50;101745.72;4999008;28;20029;-78
2022/05/18 09:53:58;;;;;;;13.87;4.93;;;;;;;21.18;70.43;101683.03;5004705;28;20015;-78
2022/05/18 09:56:33;;;;;;;8.68;4.28;;;;;;;21.10;71.18;101675.13;4984560;28;20085;-77
2022/05/18 09:59:06;;;;;;;8.85;4.40;;;;;;;22.19;69.67;101783.19;5019450;28;20087;-77
2022/05/18 10:07:30;;;;;;;10.18;4.85;;;;;;;23.52;63.08;101733.34;4997761;28;20037;-88
2022/05/18 10:10:18;;;;;;;7.18;4.55;;;;;;;22.71;65.08;101687.91;4998020;28;20033;-88
2022/05/18 10:12:47;;;;;;;9.27;4.55;;;;;;;23.35;62.43;101685.97;5003908;28;20395;-89
2022/05/18 10:15:21;;;;;;;8.85;4.28;;;;;;;23.65;62.01;101690.66;4982819;28;20105;-88
2022/05/18 10:17:51;;;;;;;10.65;4.38;;;;;;;23.41;62.17;101637.88;4980823;28;20040;-91
2022/05/18 10:20:29;;;;;;;6.38;3.80;;;;;;;23.79;61.86;101703.97;4976430;28;20022;-89
2022/05/18 10:22:57;;;;;;;4.47;3.85;;;;;;;23.55;61.60;101642.13;4994485;28;20038;-90
2022/05/18 10:25:26;;;;;;;9.38;4.45;;;;;;;23.15;62.46;101601.69;4992867;28;20026;-88
2022/05/18 10:27:52;;;;;;;10.38;4.45;;;;;;;23.00;63.38;101621.13;4995375;28;20037;-89
2022/05/18 10:30:17;;;;;;;;;;;;;;;23.06;63.93;101660.22;4976755;28;20022;-91
2022/05/18 10:32:59;;;;;;;7.10;4.45;;;;;;;23.18;61.08;101563.97;4991215;28;19914;-90
2022/05/18 10:35:48;;;;;;;7.63;4.97;;;;;;;23.37;61.63;101593.94;4979612;28;20494;-90
2022/05/18 10:38:19;;;;;;;6.57;3.60;;;;;;;23.23;62.74;101614.22;4979457;28;20038;-90
2022/05/18 10:40:45;;;;;;;6.65;4.30;;;;;;;23.43;61.02;101571.19;4978431;28;20058;-90
2022/05/18 10:43:30;;;;;;;9.93;4.80;;;;;;;22.94;63.61;101589.31;4976178;28;20054;-89
2022/05/18 10:46:00;;;;;;;8.40;4.55;;;;;;;22.88;63.25;101561.09;4979883;28;20042;-90
2022/05/18 10:48:28;;;;;;;7.25;4.40;;;;;;;22.97;65.18;101649.59;4993012;28;20030;-89
2022/05/18 10:51:08;;;;;;;4.57;3.58;;;;;;;22.93;65.44;101628.50;4996264;28;20034;-90
2022/05/18 10:53:35;;;;;;;10.85;4.93;;;;;;;23.30;62.73;101576.84;4999914;28;20026;-90
2022/05/18 10:56:09;;;;;;;6.45;4.47;;;;;;;23.51;63.72;101660.84;5006237;28;20026;-89
2022/05/18 10:58:39;;;;;;;6.40;4.38;;;;;;;23.61;63.47;101657.59;4977552;28;20117;-90
2022/05/18 11:01:13;;;;;;;10.10;4.03;;;;;;;23.82;62.66;101655.50;4983439;28;20555;-91
2022/05/18 11:03:55;;;;;;;7.50;4.60;;;;;;;24.11;61.54;101619.22;4983517;23;20030;-73
2022/05/18 11:06:26;;;;;;;10.63;4.10;;;;;;;24.39;59.76;101591.28;4984890;28;20050;-76
2022/05/18 11:08:56;;;;;;;8.73;4.38;;;;;;;24.79;60.02;101650.72;4986641;28;20085;-76
2022/05/18 11:11:35;;;;;;;7.28;4.72;;;;;;;24.55;60.19;101633.47;4982534;28;20037;-76
2022/05/18 11:14:23;;;;;;;7.78;4.15;;;;;;;24.88;59.25;101628.56;4981545;28;20244;-76
2022/05/18 11:17:16;;;;;;;7.13;4.20;;;;;;;24.66;59.02;101574.53;4968645;28;20078;-76
2022/05/18 11:19:57;;;;;;;9.40;4.47;;;;;;;25.17;57.79;101592.09;4982413;28;20049;-76
2022/05/18 11:22:30;;;;;;;5.90;4.05;;;;;;;24.77;59.21;101587.34;4966506;28;20038;-76
2022/05/18 11:25:18;;;;;;;6.57;4.45;;;;;;;24.84;59.06;101593.53;4985690;28;20530;-77
2022/05/18 11:27:55;;;;;;;7.60;4.47;;;;;;;25.53;57.04;101595.59;4970330;28;20061;-76
2022/05/18 11:30:25;;;;;;;6.20;3.80;;;;;;;25.00;58.27;101561.09;4984682;28;20045;-77
2022/05/18 11:33:10;;;;;;;5.65;4.40;;;;;;;25.14;58.56;101622.59;4985962;28;20053;-77
2022/05/18 11:35:53;;;;;;;8.48;3.75;;;;;;;25.66;58.76;101685.56;4983891;28;20443;-76
2022/05/18 11:38:42;;;;;;;6.65;3.95;;;;;;;26.26;55.92;101620.56;4992006;28;20088;-76
2022/05/18 11:41:30;;;;;;;6.38;3.58;;;;;;;24.82;58.08;101472.78;4984452;28;20034;-76
2022/05/18 11:44:02;;;;;;;7.30;3.83;;;;;;;25.40;58.58;101593.13;4986232;28;20027;-76
2022/05/18 11:46:40;;;;;;;7.50;3.70;;;;;;;24.76;59.43;101531.06;4985683;28;20399;-76
2022/05/18 11:49:35;;;;;;;8.38;4.43;;;;;;;24.96;59.37;101582.59;4983840;28;20030;-76
2022/05/18 11:52:19;;;;;;;9.10;4.68;;;;;;;24.64;59.19;101505.69;4985287;28;20129;-76
2022/05/18 11:55:16;;;;;;;6.88;4.10;;;;;;;25.32;59.02;101607.19;4982604;28;20515;-76
2022/05/18 11:58:04;;;;;;;6.30;4.15;;;;;;;25.49;58.52;101602.63;4985594;28;20049;-76